Terminal Aerodrome Forecast
Issued by NWS

Home | Current Version | Previous Version | Text Only | Print | Product List | Glossary Off
Versions: 1 2 3 4 5 6 7 8 9 10 11 12 13 14 15

000
FTUS43 KGRB 021730
TAFRHI
TAF
KRHI 021730Z 0218/0318 29003KT P6SM BKN050
     FM030300 VRB03KT P6SM SCT060
      TEMPO 0303/0306 BKN060
     FM030600 VRB02KT P6SM SKC
     FM031200 25006KT P6SM BKN100
     FM031600 26014G24KT P6SM SCT040 OVC100=

USA.gov is the U.S. government's official web portal to all federal, state and local government web resources and services.